Thursday, June 21, 2018, 6:32 AM EDT
Back to Local

KSBY, Salisbury-wicomico Cty Reg

Location: Salisbury, MD, United States Lat: 38.333
Local Time: 6:32 AM EDT (10:32 GMT) Lon: -75.5
Time Zone: US/Eastern Elev: 52 ft

Show me the last for .
Show Decoded

2018-06-21 05:54 METAR KSBY 210954Z AUTO 00000KT 6SM BR CLR 23/23 A2974 RMK AO2 SLP074 T02280228
                 =
2018-06-21 04:54 METAR KSBY 210854Z AUTO 27004KT 9SM SCT006 24/23 A2973 RMK AO2 SLP069 T02390233
                 55002 =
2018-06-21 03:54 METAR KSBY 210754Z AUTO 28004KT 6SM BR BKN007 24/24 A2973 RMK AO2 CIG 005V011
                 SLP068 T02390239 =
2018-06-21 03:51 METAR KSBY 210751Z AUTO 28003KT 6SM BR BKN007 24/24 A2973 RMK AO2 CIG 006V011 =
2018-06-21 03:36 METAR KSBY 210736Z AUTO 28003KT 4SM BR SCT007 23/23 A2973 RMK AO2 T02330233 =
2018-06-21 02:54 METAR KSBY 210654Z AUTO 29004KT 5SM BR SCT110 24/24 A2974 RMK AO2 SLP070
                 T02390239 =
2018-06-21 02:15 METAR KSBY 210615Z AUTO 23003KT 4SM BR SCT005 SCT120 24/24 A2975 RMK AO2
                 T02390239 =
2018-06-21 02:08 METAR KSBY 210608Z AUTO 24003KT 4SM BR BKN005 BKN120 24/24 A2975 RMK AO2
                 T02390239 =
2018-06-21 01:54 METAR KSBY 210554Z AUTO 26005KT 4SM BR FEW005 FEW100 SCT120 24/24 A2976 RMK AO2
                 SLP078 60027 T02390239 10256 20239 55011 =
2018-06-21 01:20 METAR KSBY 210520Z AUTO 23004KT 5SM BR SCT005 24/24 A2976 RMK AO2 T02390239 =
2018-06-21 01:00 METAR KSBY 210500Z AUTO 19006KT 5SM BR BKN007 BKN012 24/24 A2976 RMK AO2 CIG
                 004V008 T02390239 =
2018-06-21 00:54 METAR KSBY 210454Z AUTO 20005KT 4SM BR SCT007 SCT010 24/24 A2976 RMK AO2 RAE28
                 TSE0359 SLP079 P0017 T02390239 403060217 =
2018-06-21 00:28 METAR KSBY 210428Z AUTO 19005KT 6SM BR FEW005 SCT049 BKN110 24/24 A2977 RMK AO2
                 RAE28 TSE0359 P0017 T02390239 =
2018-06-21 00:20 METAR KSBY 210420Z AUTO 19005KT 2 1/2SM +RA BR FEW021 BKN049 BKN090 24/24 A2977
                 RMK AO2 TSE0359 P0017 T02390239 =
2018-06-21 00:10 METAR KSBY 210410Z AUTO 21007KT 1 3/4SM +RA BR FEW019 BKN049 OVC110 24/24 A2978
                 RMK AO2 TSE0359 P0014 T02390239 =
2018-06-20 23:59 METAR KSBY 210359Z AUTO 20010KT 1 1/2SM VCTS +RA BR SCT045 BKN075 OVC120 24/24
                 A2978 RMK AO2 TSE59 P0008 T02390239 =
2018-06-20 23:54 METAR KSBY 210354Z AUTO 20009KT 2SM TSRA BR FEW046 BKN100 OVC120 24/24 A2979 RMK
                 AO2 RAB32 TSB28 SLP088 P0008 T02390239 =
2018-06-20 23:28 METAR KSBY 210328Z AUTO 19003KT 7SM TS FEW018 SCT030 SCT110 24/24 A2980 RMK AO2
                 LTG DSNT SW AND W TSB28 T02390239 =
2018-06-20 22:54 METAR KSBY 210254Z AUTO 19005KT 8SM FEW019 SCT050 24/23 A2979 RMK AO2 SLP090
                 60002 T02390233 55000 =
2018-06-20 21:54 METAR KSBY 210154Z 18004KT 8SM SCT029 SCT034 BKN043 24/24 A2980 RMK AO2 SLP094
                 T02390239 =
2018-06-20 20:54 METAR KSBY 210054Z 00000KT 9SM FEW047 FEW095 SCT120 24/24 A2977 RMK AO2 RAB09E30
                 SLP083 P0002 T02440239 =
2018-06-20 19:54 METAR KSBY 202354Z 18004KT 10SM CLR 26/23 A2979 RMK AO2 SLP090 T02560233 10306
                 20256 55000 =
2018-06-20 18:54 METAR KSBY 202254Z 17005KT 10SM CLR 27/24 A2978 RMK AO2 SLP086 T02670239 =
2018-06-20 17:54 METAR KSBY 202154Z 15007KT 10SM SCT049 28/24 A2978 RMK AO2 SLP085 T02780244 =
2018-06-20 16:54 METAR KSBY 202054Z 14008KT 10SM SCT050 BKN060 BKN070 28/24 A2979 RMK AO2 SLP090
                 T02780239 58009 =
2018-06-20 15:54 METAR KSBY 201954Z 15008KT 10SM FEW043 BKN065 28/24 A2980 RMK AO2 SLP094
                 T02780239 =
2018-06-20 14:54 METAR KSBY 201854Z 18009KT 10SM FEW028 FEW038 30/24 A2982 RMK AO2 SLP098
                 T03000239 =
2018-06-20 13:54 METAR KSBY 201754Z VRB06KT 10SM SCT060 31/23 A2982 RMK AO2 SLP099 T03060233
                 10306 20228 58016 =
2018-06-20 12:54 METAR KSBY 201654Z 16008KT 10SM SCT036 SCT044 29/23 A2984 RMK AO2 SLP106
                 T02940233 =
2018-06-20 11:54 METAR KSBY 201554Z 14008KT 10SM CLR 29/23 A2986 RMK AO2 SLP112 T02890228 =
2018-06-20 10:54 METAR KSBY 201454Z 12003KT 10SM SCT010 28/22 A2987 RMK AO2 SLP116 T02780222
                 58002 =
2018-06-20 10:13 METAR KSBY 201413Z 16006KT 10SM SCT010 27/23 A2987 RMK AO2 T02720233 =
2018-06-20 10:01 METAR KSBY 201401Z VRB05KT 9SM BKN010 27/23 A2987 RMK AO2 T02670233 =
2018-06-20 09:54 METAR KSBY 201354Z VRB05KT 8SM BKN007 BKN010 BKN016 27/24 A2987 RMK AO2 SLP117
                 T02670239 =
2018-06-20 08:54 METAR KSBY 201254Z 00000KT 4SM BR OVC006 24/24 A2987 RMK AO2 CIG 004V009 SLP118
                 T02440239 =
2018-06-20 08:51 METAR KSBY 201251Z 19003KT 4SM BR OVC006 24/24 A2987 RMK AO2 CIG 004V009 =
2018-06-20 08:33 METAR KSBY 201233Z 13004KT 3SM BR BKN004 OVC009 24/24 A2987 RMK AO2 T02390239 =
2018-06-20 08:07 METAR KSBY 201207Z 11003KT 2SM BR BKN003 OVC009 23/23 A2987 RMK AO2 T02330233 =
2018-06-20 07:54 METAR KSBY 201154Z 00000KT 1 3/4SM BR OVC002 23/23 A2987 RMK AO2 SLP117 70014
                 T02280228 10233 20217 51010 =
2018-06-20 07:44 METAR KSBY 201144Z 00000KT 1SM BR OVC002 23/23 A2987 RMK AO2 T02280228 =
2018-06-20 06:54 METAR KSBY 201054Z 00000KT 1/4SM FG OVC003 22/22 A2986 RMK AO2 VIS M1/4V3 SLP113
                 T02170217 =
2018-06-20 06:50 METAR KSBY 201050Z 00000KT 1 3/4SM BR BKN003 22/22 A2986 RMK AO2 =
2018-06-20 06:44 METAR KSBY 201044Z 00000KT 5SM BR BKN003 BKN013 22/22 A2986 RMK AO2 T02220217 =
2018-06-20 06:36 METAR KSBY 201036Z 00000KT 5SM BR SCT004 BKN013 22/22 A2986 RMK AO2 T02170217 =

Support USWX by starting your Amazon purchase here.